sensor_id;sensor_type;location;lat;lon;timestamp;temperature;humidity
4090;DHT22;2059;48.538;12.146;2022-12-18T00:03:46;-2.20;99.90
4090;DHT22;2059;48.538;12.146;2022-12-18T00:08:49;-2.40;99.90
4090;DHT22;2059;48.538;12.146;2022-12-18T00:13:53;-2.30;99.90
4090;DHT22;2059;48.538;12.146;2022-12-18T00:18:56;-2.00;99.90
4090;DHT22;2059;48.538;12.146;2022-12-18T00:24:00;-2.00;99.90
4090;DHT22;2059;48.538;12.146;2022-12-18T00:29:04;-2.60;99.90
4090;DHT22;2059;48.538;12.146;2022-12-18T00:34:08;-2.40;99.90
4090;DHT22;2059;48.538;12.146;2022-12-18T00:39:12;-2.60;99.90
4090;DHT22;2059;48.538;12.146;2022-12-18T00:44:16;-2.40;99.90
4090;DHT22;2059;48.538;12.146;2022-12-18T00:49:19;-2.40;99.90
4090;DHT22;2059;48.538;12.146;2022-12-18T00:54:23;-2.40;99.90
4090;DHT22;2059;48.538;12.146;2022-12-18T00:59:24;-2.10;99.90
4090;DHT22;2059;48.538;12.146;2022-12-18T01:04:26;-2.30;99.90
4090;DHT22;2059;48.538;12.146;2022-12-18T01:09:30;-2.50;99.90
4090;DHT22;2059;48.538;12.146;2022-12-18T01:14:31;-2.10;99.90
4090;DHT22;2059;48.538;12.146;2022-12-18T01:19:33;-2.30;99.90
4090;DHT22;2059;48.538;12.146;2022-12-18T01:24:37;-1.90;99.90
4090;DHT22;2059;48.538;12.146;2022-12-18T01:29:39;-1.90;99.90
4090;DHT22;2059;48.538;12.146;2022-12-18T01:34:41;-1.90;99.90
4090;DHT22;2059;48.538;12.146;2022-12-18T01:39:44;-2.10;99.90
4090;DHT22;2059;48.538;12.146;2022-12-18T01:45:05;-1.80;99.90
4090;DHT22;2059;48.538;12.146;2022-12-18T01:50:10;-1.90;99.90
4090;DHT22;2059;48.538;12.146;2022-12-18T01:55:16;-1.70;99.90
4090;DHT22;2059;48.538;12.146;2022-12-18T02:00:20;-2.10;99.90
4090;DHT22;2059;48.538;12.146;2022-12-18T02:05:29;-1.80;99.90
4090;DHT22;2059;48.538;12.146;2022-12-18T02:10:41;-1.90;99.90
4090;DHT22;2059;48.538;12.146;2022-12-18T02:15:49;-1.90;99.90
4090;DHT22;2059;48.538;12.146;2022-12-18T02:20:56;-1.70;99.90
4090;DHT22;2059;48.538;12.146;2022-12-18T02:26:07;-1.60;99.90
4090;DHT22;2059;48.538;12.146;2022-12-18T02:31:15;-1.70;99.90
4090;DHT22;2059;48.538;12.146;2022-12-18T02:36:19;-2.40;99.90
4090;DHT22;2059;48.538;12.146;2022-12-18T02:41:23;-2.40;99.90
4090;DHT22;2059;48.538;12.146;2022-12-18T02:46:28;-2.20;99.90
4090;DHT22;2059;48.538;12.146;2022-12-18T02:51:38;-2.30;99.90
4090;DHT22;2059;48.538;12.146;2022-12-18T02:56:47;-2.20;99.90
4090;DHT22;2059;48.538;12.146;2022-12-18T03:01:57;-2.60;99.90
4090;DHT22;2059;48.538;12.146;2022-12-18T03:07:03;-2.30;99.90
4090;DHT22;2059;48.538;12.146;2022-12-18T03:12:10;-2.40;99.90
4090;DHT22;2059;48.538;12.146;2022-12-18T03:17:27;-2.30;99.90
4090;DHT22;2059;48.538;12.146;2022-12-18T03:22:30;-2.30;99.90
4090;DHT22;2059;48.538;12.146;2022-12-18T03:27:37;-2.50;99.90
4090;DHT22;2059;48.538;12.146;2022-12-18T03:32:42;-2.20;99.90
4090;DHT22;2059;48.538;12.146;2022-12-18T03:37:46;-2.10;99.90
4090;DHT22;2059;48.538;12.146;2022-12-18T03:42:52;-2.00;99.90
4090;DHT22;2059;48.538;12.146;2022-12-18T03:47:59;-2.30;99.90
4090;DHT22;2059;48.538;12.146;2022-12-18T03:53:10;-2.30;99.90
4090;DHT22;2059;48.538;12.146;2022-12-18T03:58:19;-2.40;99.90
4090;DHT22;2059;48.538;12.146;2022-12-18T04:03:23;-2.40;99.90
4090;DHT22;2059;48.538;12.146;2022-12-18T04:08:25;-2.00;99.90
4090;DHT22;2059;48.538;12.146;2022-12-18T04:13:31;-2.60;99.90
4090;DHT22;2059;48.538;12.146;2022-12-18T04:18:34;-2.20;99.90
4090;DHT22;2059;48.538;12.146;2022-12-18T04:23:36;-2.10;99.90
4090;DHT22;2059;48.538;12.146;2022-12-18T04:28:39;-1.90;99.90
4090;DHT22;2059;48.538;12.146;2022-12-18T04:33:41;-2.10;99.90
4090;DHT22;2059;48.538;12.146;2022-12-18T04:38:43;-2.40;99.90
4090;DHT22;2059;48.538;12.146;2022-12-18T04:43:46;-2.60;99.90
4090;DHT22;2059;48.538;12.146;2022-12-18T04:48:47;-2.50;99.90
4090;DHT22;2059;48.538;12.146;2022-12-18T04:53:49;-2.60;99.90
4090;DHT22;2059;48.538;12.146;2022-12-18T04:58:52;-2.50;99.90
4090;DHT22;2059;48.538;12.146;2022-12-18T05:03:54;-2.30;99.90
4090;DHT22;2059;48.538;12.146;2022-12-18T05:08:56;-2.50;99.90
4090;DHT22;2059;48.538;12.146;2022-12-18T05:13:59;-2.10;99.90
4090;DHT22;2059;48.538;12.146;2022-12-18T05:19:01;-1.90;99.90
4090;DHT22;2059;48.538;12.146;2022-12-18T05:24:03;-2.00;99.90
4090;DHT22;2059;48.538;12.146;2022-12-18T05:29:07;-2.30;99.90
4090;DHT22;2059;48.538;12.146;2022-12-18T05:34:08;-2.70;99.90
4090;DHT22;2059;48.538;12.146;2022-12-18T05:39:10;-2.60;99.90
4090;DHT22;2059;48.538;12.146;2022-12-18T05:44:13;-2.20;99.90
4090;DHT22;2059;48.538;12.146;2022-12-18T05:49:15;-2.30;99.90
4090;DHT22;2059;48.538;12.146;2022-12-18T05:54:17;-2.20;99.90
4090;DHT22;2059;48.538;12.146;2022-12-18T05:59:20;-2.50;99.90
4090;DHT22;2059;48.538;12.146;2022-12-18T06:04:22;-2.40;99.90
4090;DHT22;2059;48.538;12.146;2022-12-18T06:09:24;-2.30;99.90
4090;DHT22;2059;48.538;12.146;2022-12-18T06:14:27;-2.10;99.90
4090;DHT22;2059;48.538;12.146;2022-12-18T06:19:29;-2.00;99.90
4090;DHT22;2059;48.538;12.146;2022-12-18T06:24:31;-2.10;99.90
4090;DHT22;2059;48.538;12.146;2022-12-18T06:29:34;-2.00;99.90
4090;DHT22;2059;48.538;12.146;2022-12-18T06:34:37;-1.90;99.90
4090;DHT22;2059;48.538;12.146;2022-12-18T06:39:39;-1.90;99.90
4090;DHT22;2059;48.538;12.146;2022-12-18T06:44:42;-1.90;99.90
4090;DHT22;2059;48.538;12.146;2022-12-18T06:49:44;-1.90;99.90
4090;DHT22;2059;48.538;12.146;2022-12-18T06:54:46;-2.20;99.90
4090;DHT22;2059;48.538;12.146;2022-12-18T06:59:49;-1.90;99.90
4090;DHT22;2059;48.538;12.146;2022-12-18T07:04:51;-2.00;99.90
4090;DHT22;2059;48.538;12.146;2022-12-18T07:09:53;-2.20;99.90
4090;DHT22;2059;48.538;12.146;2022-12-18T07:14:56;-2.10;99.90
4090;DHT22;2059;48.538;12.146;2022-12-18T07:19:58;-1.90;99.90
4090;DHT22;2059;48.538;12.146;2022-12-18T07:24:59;-2.00;99.90
4090;DHT22;2059;48.538;12.146;2022-12-18T07:30:03;-2.10;99.90
4090;DHT22;2059;48.538;12.146;2022-12-18T07:35:06;-1.70;99.90
4090;DHT22;2059;48.538;12.146;2022-12-18T07:40:09;-1.60;99.90
4090;DHT22;2059;48.538;12.146;2022-12-18T07:45:12;-1.50;99.90
4090;DHT22;2059;48.538;12.146;2022-12-18T07:50:14;-1.70;99.90
4090;DHT22;2059;48.538;12.146;2022-12-18T07:55:16;-1.70;99.90
4090;DHT22;2059;48.538;12.146;2022-12-18T08:00:20;-1.40;99.90
4090;DHT22;2059;48.538;12.146;2022-12-18T08:05:21;-1.50;99.90
4090;DHT22;2059;48.538;12.146;2022-12-18T08:10:23;-1.70;99.90
4090;DHT22;2059;48.538;12.146;2022-12-18T08:15:27;-1.70;99.90
4090;DHT22;2059;48.538;12.146;2022-12-18T08:20:28;-1.80;99.90
4090;DHT22;2059;48.538;12.146;2022-12-18T08:25:30;-2.00;99.90
4090;DHT22;2059;48.538;12.146;2022-12-18T08:30:33;-2.00;99.90
4090;DHT22;2059;48.538;12.146;2022-12-18T08:35:36;-1.70;99.90
4090;DHT22;2059;48.538;12.146;2022-12-18T08:40:38;-1.40;99.90
4090;DHT22;2059;48.538;12.146;2022-12-18T08:45:41;-1.40;99.90
4090;DHT22;2059;48.538;12.146;2022-12-18T08:50:43;-1.10;99.90
4090;DHT22;2059;48.538;12.146;2022-12-18T08:55:45;-0.90;99.90
4090;DHT22;2059;48.538;12.146;2022-12-18T09:00:48;-0.80;99.90
4090;DHT22;2059;48.538;12.146;2022-12-18T09:05:50;-0.80;99.90
4090;DHT22;2059;48.538;12.146;2022-12-18T09:10:52;-0.90;99.90
4090;DHT22;2059;48.538;12.146;2022-12-18T09:15:55;-0.70;99.90
4090;DHT22;2059;48.538;12.146;2022-12-18T09:20:57;-0.40;99.90
4090;DHT22;2059;48.538;12.146;2022-12-18T09:25:59;-0.20;99.00
4090;DHT22;2059;48.538;12.146;2022-12-18T09:31:05;-0.60;99.70
4090;DHT22;2059;48.538;12.146;2022-12-18T09:36:10;-0.50;99.40
4090;DHT22;2059;48.538;12.146;2022-12-18T09:41:32;-0.40;99.30
4090;DHT22;2059;48.538;12.146;2022-12-18T09:46:42;-0.30;99.10
4090;DHT22;2059;48.538;12.146;2022-12-18T09:51:49;-0.30;98.80
4090;DHT22;2059;48.538;12.146;2022-12-18T09:56:51;-0.30;98.90
4090;DHT22;2059;48.538;12.146;2022-12-18T10:01:55;-0.50;98.90
4090;DHT22;2059;48.538;12.146;2022-12-18T10:07:01;-0.50;99.30
4090;DHT22;2059;48.538;12.146;2022-12-18T10:12:09;-0.30;98.70
4090;DHT22;2059;48.538;12.146;2022-12-18T10:17:22;-0.40;98.30
4090;DHT22;2059;48.538;12.146;2022-12-18T10:22:38;-0.20;98.10
4090;DHT22;2059;48.538;12.146;2022-12-18T10:27:43;-0.10;98.50
4090;DHT22;2059;48.538;12.146;2022-12-18T10:32:47;-0.40;98.60
4090;DHT22;2059;48.538;12.146;2022-12-18T10:38:07;-0.70;98.60
4090;DHT22;2059;48.538;12.146;2022-12-18T10:43:25;-0.50;99.00
4090;DHT22;2059;48.538;12.146;2022-12-18T10:48:30;0.00;98.30
4090;DHT22;2059;48.538;12.146;2022-12-18T10:53:34;0.40;98.20
4090;DHT22;2059;48.538;12.146;2022-12-18T10:58:37;0.60;97.80
4090;DHT22;2059;48.538;12.146;2022-12-18T11:03:43;1.20;97.90
4090;DHT22;2059;48.538;12.146;2022-12-18T11:08:58;1.80;96.70
4090;DHT22;2059;48.538;12.146;2022-12-18T11:14:03;1.60;96.80
4090;DHT22;2059;48.538;12.146;2022-12-18T11:19:20;1.20;96.00
4090;DHT22;2059;48.538;12.146;2022-12-18T11:24:28;1.10;96.30
4090;DHT22;2059;48.538;12.146;2022-12-18T11:29:35;0.50;96.00
4090;DHT22;2059;48.538;12.146;2022-12-18T11:34:39;-0.20;97.20
4090;DHT22;2059;48.538;12.146;2022-12-18T11:39:46;-0.20;97.10
4090;DHT22;2059;48.538;12.146;2022-12-18T11:44:53;-0.30;97.40
4090;DHT22;2059;48.538;12.146;2022-12-18T11:55:09;-0.50;98.00
4090;DHT22;2059;48.538;12.146;2022-12-18T12:00:14;-0.10;97.60
4090;DHT22;2059;48.538;12.146;2022-12-18T12:05:28;-0.10;97.70
4090;DHT22;2059;48.538;12.146;2022-12-18T12:10:46;-0.10;97.40
4090;DHT22;2059;48.538;12.146;2022-12-18T12:15:58;-0.20;97.30
4090;DHT22;2059;48.538;12.146;2022-12-18T12:21:11;-0.30;97.60
4090;DHT22;2059;48.538;12.146;2022-12-18T12:26:20;-0.30;97.70
4090;DHT22;2059;48.538;12.146;2022-12-18T12:31:42;-0.30;98.00
4090;DHT22;2059;48.538;12.146;2022-12-18T12:37:02;-0.10;97.60
4090;DHT22;2059;48.538;12.146;2022-12-18T12:42:13;-0.10;97.90
4090;DHT22;2059;48.538;12.146;2022-12-18T12:47:38;-0.10;97.80
4090;DHT22;2059;48.538;12.146;2022-12-18T12:52:45;0.20;97.90
4090;DHT22;2059;48.538;12.146;2022-12-18T12:57:57;0.10;97.40
4090;DHT22;2059;48.538;12.146;2022-12-18T13:03:03;0.00;97.50
4090;DHT22;2059;48.538;12.146;2022-12-18T13:08:09;0.00;97.60
4090;DHT22;2059;48.538;12.146;2022-12-18T13:13:15;0.20;97.50
4090;DHT22;2059;48.538;12.146;2022-12-18T13:18:19;0.20;97.90
4090;DHT22;2059;48.538;12.146;2022-12-18T13:23:36;0.40;97.50
4090;DHT22;2059;48.538;12.146;2022-12-18T13:28:53;0.20;97.30
4090;DHT22;2059;48.538;12.146;2022-12-18T13:34:12;0.20;97.70
4090;DHT22;2059;48.538;12.146;2022-12-18T13:39:24;0.40;97.30
4090;DHT22;2059;48.538;12.146;2022-12-18T13:44:32;0.40;97.20
4090;DHT22;2059;48.538;12.146;2022-12-18T13:49:38;0.30;97.10
4090;DHT22;2059;48.538;12.146;2022-12-18T13:54:41;0.30;97.20
4090;DHT22;2059;48.538;12.146;2022-12-18T13:59:45;0.30;97.30
4090;DHT22;2059;48.538;12.146;2022-12-18T14:04:47;0.10;97.80
4090;DHT22;2059;48.538;12.146;2022-12-18T14:09:51;0.10;97.70
4090;DHT22;2059;48.538;12.146;2022-12-18T14:14:55;0.00;97.70
4090;DHT22;2059;48.538;12.146;2022-12-18T14:19:57;-0.30;97.60
4090;DHT22;2059;48.538;12.146;2022-12-18T14:25:14;-0.30;97.80
4090;DHT22;2059;48.538;12.146;2022-12-18T14:30:29;-0.50;98.10
4090;DHT22;2059;48.538;12.146;2022-12-18T14:35:31;-0.60;98.20
4090;DHT22;2059;48.538;12.146;2022-12-18T14:40:33;-0.70;98.40
4090;DHT22;2059;48.538;12.146;2022-12-18T14:45:38;-0.90;98.60
4090;DHT22;2059;48.538;12.146;2022-12-18T14:50:41;-1.50;99.30
4090;DHT22;2059;48.538;12.146;2022-12-18T14:55:45;-1.50;99.50
4090;DHT22;2059;48.538;12.146;2022-12-18T15:00:49;-1.60;99.70
4090;DHT22;2059;48.538;12.146;2022-12-18T15:05:51;-1.70;99.90
4090;DHT22;2059;48.538;12.146;2022-12-18T15:10:53;-1.80;99.90
4090;DHT22;2059;48.538;12.146;2022-12-18T15:16:01;-1.70;99.90
4090;DHT22;2059;48.538;12.146;2022-12-18T15:21:09;-1.60;99.90
4090;DHT22;2059;48.538;12.146;2022-12-18T15:26:13;-1.80;99.90
4090;DHT22;2059;48.538;12.146;2022-12-18T15:31:30;-1.90;99.90
4090;DHT22;2059;48.538;12.146;2022-12-18T15:36:33;-1.70;99.90
4090;DHT22;2059;48.538;12.146;2022-12-18T15:41:36;-1.90;99.90
4090;DHT22;2059;48.538;12.146;2022-12-18T15:46:40;-2.00;99.90
4090;DHT22;2059;48.538;12.146;2022-12-18T15:51:42;-2.00;99.90
4090;DHT22;2059;48.538;12.146;2022-12-18T15:56:43;-2.20;99.90
4090;DHT22;2059;48.538;12.146;2022-12-18T16:02:14;-2.40;99.90
4090;DHT22;2059;48.538;12.146;2022-12-18T16:07:17;-2.20;99.90
4090;DHT22;2059;48.538;12.146;2022-12-18T16:12:22;-2.40;99.90
4090;DHT22;2059;48.538;12.146;2022-12-18T17:04:38;-2.40;99.90
4090;DHT22;2059;48.538;12.146;2022-12-18T17:09:40;-2.60;99.90
4090;DHT22;2059;48.538;12.146;2022-12-18T17:14:42;-2.60;99.90
4090;DHT22;2059;48.538;12.146;2022-12-18T17:19:47;-2.60;99.90
4090;DHT22;2059;48.538;12.146;2022-12-18T17:24:49;-2.70;99.90
4090;DHT22;2059;48.538;12.146;2022-12-18T17:29:51;-2.70;99.90
4090;DHT22;2059;48.538;12.146;2022-12-18T17:34:54;-2.80;99.90
4090;DHT22;2059;48.538;12.146;2022-12-18T17:39:56;-2.90;99.90
4090;DHT22;2059;48.538;12.146;2022-12-18T17:44:58;-3.00;99.90
4090;DHT22;2059;48.538;12.146;2022-12-18T17:50:01;-3.10;99.90
4090;DHT22;2059;48.538;12.146;2022-12-18T17:55:03;-3.10;99.90
4090;DHT22;2059;48.538;12.146;2022-12-18T18:00:07;-2.90;99.90
4090;DHT22;2059;48.538;12.146;2022-12-18T18:05:11;-3.00;99.90
4090;DHT22;2059;48.538;12.146;2022-12-18T18:10:13;-3.00;99.90
4090;DHT22;2059;48.538;12.146;2022-12-18T18:15:15;-2.80;99.90
4090;DHT22;2059;48.538;12.146;2022-12-18T18:20:18;-3.00;99.90
4090;DHT22;2059;48.538;12.146;2022-12-18T18:25:20;-3.20;99.90
4090;DHT22;2059;48.538;12.146;2022-12-18T18:30:22;-3.10;99.90
4090;DHT22;2059;48.538;12.146;2022-12-18T18:35:25;-2.90;99.90
4090;DHT22;2059;48.538;12.146;2022-12-18T18:40:27;-3.20;99.90
4090;DHT22;2059;48.538;12.146;2022-12-18T18:45:29;-3.40;99.90
4090;DHT22;2059;48.538;12.146;2022-12-18T18:50:32;-3.20;99.90
4090;DHT22;2059;48.538;12.146;2022-12-18T18:55:34;-3.50;99.90
4090;DHT22;2059;48.538;12.146;2022-12-18T19:00:38;-3.40;99.90
4090;DHT22;2059;48.538;12.146;2022-12-18T19:05:41;-3.30;99.90
4090;DHT22;2059;48.538;12.146;2022-12-18T19:10:43;-3.20;99.90
4090;DHT22;2059;48.538;12.146;2022-12-18T19:15:44;-3.40;99.90
4090;DHT22;2059;48.538;12.146;2022-12-18T19:20:55;-3.40;99.90
4090;DHT22;2059;48.538;12.146;2022-12-18T19:25:58;-3.30;99.90
4090;DHT22;2059;48.538;12.146;2022-12-18T19:31:02;-3.10;99.90
4090;DHT22;2059;48.538;12.146;2022-12-18T19:36:12;-3.10;99.90
4090;DHT22;2059;48.538;12.146;2022-12-18T19:41:15;-3.30;99.90
4090;DHT22;2059;48.538;12.146;2022-12-18T19:46:19;-3.40;99.90
4090;DHT22;2059;48.538;12.146;2022-12-18T19:51:25;-3.40;99.90
4090;DHT22;2059;48.538;12.146;2022-12-18T19:56:29;-3.40;99.90
4090;DHT22;2059;48.538;12.146;2022-12-18T20:01:31;-3.70;99.90
4090;DHT22;2059;48.538;12.146;2022-12-18T20:06:44;-3.60;99.90
4090;DHT22;2059;48.538;12.146;2022-12-18T20:11:46;-3.30;99.90
4090;DHT22;2059;48.538;12.146;2022-12-18T20:16:48;-3.30;99.90
4090;DHT22;2059;48.538;12.146;2022-12-18T20:21:52;-3.40;99.90
4090;DHT22;2059;48.538;12.146;2022-12-18T20:26:54;-3.50;99.90
4090;DHT22;2059;48.538;12.146;2022-12-18T20:31:56;-3.60;99.90
4090;DHT22;2059;48.538;12.146;2022-12-18T20:36:59;-3.40;99.90
4090;DHT22;2059;48.538;12.146;2022-12-18T20:42:01;-3.40;99.90
4090;DHT22;2059;48.538;12.146;2022-12-18T20:47:03;-3.10;99.90
4090;DHT22;2059;48.538;12.146;2022-12-18T20:52:06;-3.10;99.90
4090;DHT22;2059;48.538;12.146;2022-12-18T20:57:08;-3.60;99.90
4090;DHT22;2059;48.538;12.146;2022-12-18T21:02:12;-3.30;99.90
4090;DHT22;2059;48.538;12.146;2022-12-18T21:07:15;-3.20;99.90
4090;DHT22;2059;48.538;12.146;2022-12-18T21:12:17;-3.20;99.90
4090;DHT22;2059;48.538;12.146;2022-12-18T21:17:47;-2.90;99.90
4090;DHT22;2059;48.538;12.146;2022-12-18T21:22:50;-2.90;99.90
4090;DHT22;2059;48.538;12.146;2022-12-18T21:27:52;-2.70;99.90
4090;DHT22;2059;48.538;12.146;2022-12-18T21:32:54;-2.70;99.90
4090;DHT22;2059;48.538;12.146;2022-12-18T21:37:57;-2.80;99.90
4090;DHT22;2059;48.538;12.146;2022-12-18T21:42:59;-2.70;99.90
4090;DHT22;2059;48.538;12.146;2022-12-18T21:48:18;-2.80;99.90
4090;DHT22;2059;48.538;12.146;2022-12-18T21:53:21;-2.80;99.90
4090;DHT22;2059;48.538;12.146;2022-12-18T21:58:23;-2.90;99.90
4090;DHT22;2059;48.538;12.146;2022-12-18T22:03:25;-2.60;99.90
4090;DHT22;2059;48.538;12.146;2022-12-18T22:08:28;-2.30;99.90
4090;DHT22;2059;48.538;12.146;2022-12-18T22:13:30;-2.30;99.90
4090;DHT22;2059;48.538;12.146;2022-12-18T22:18:32;-2.50;99.90
4090;DHT22;2059;48.538;12.146;2022-12-18T22:23:35;-2.70;99.90
4090;DHT22;2059;48.538;12.146;2022-12-18T22:28:37;-2.40;99.90
4090;DHT22;2059;48.538;12.146;2022-12-18T22:33:56;-2.80;99.90
4090;DHT22;2059;48.538;12.146;2022-12-18T22:38:59;-2.80;99.90
4090;DHT22;2059;48.538;12.146;2022-12-18T22:44:02;-2.80;99.90
4090;DHT22;2059;48.538;12.146;2022-12-18T22:49:04;-2.90;99.90
4090;DHT22;2059;48.538;12.146;2022-12-18T22:54:08;-2.60;99.90
4090;DHT22;2059;48.538;12.146;2022-12-18T22:59:14;-2.50;99.90
4090;DHT22;2059;48.538;12.146;2022-12-18T23:04:16;-2.40;99.90
4090;DHT22;2059;48.538;12.146;2022-12-18T23:09:20;-2.20;99.90
4090;DHT22;2059;48.538;12.146;2022-12-18T23:14:22;-2.40;99.90
4090;DHT22;2059;48.538;12.146;2022-12-18T23:19:24;-2.50;99.90
4090;DHT22;2059;48.538;12.146;2022-12-18T23:24:27;-2.50;99.90
4090;DHT22;2059;48.538;12.146;2022-12-18T23:29:29;-2.50;99.90
4090;DHT22;2059;48.538;12.146;2022-12-18T23:34:31;-2.40;99.90
4090;DHT22;2059;48.538;12.146;2022-12-18T23:39:34;-2.30;99.90
4090;DHT22;2059;48.538;12.146;2022-12-18T23:44:36;-2.50;99.90
4090;DHT22;2059;48.538;12.146;2022-12-18T23:49:38;-2.30;99.90
4090;DHT22;2059;48.538;12.146;2022-12-18T23:54:41;-2.20;99.90
4090;DHT22;2059;48.538;12.146;2022-12-18T23:59:43;-2.30;99.90
